sensor_id;sensor_type;location;lat;lon;timestamp;pressure;altitude;pressure_sealevel;temperature;humidity
15050;BME280;7622;42.724;23.250;2023-03-25T00:00:48;94427.44;;;9.79;100.00
15050;BME280;7622;42.724;23.250;2023-03-25T00:03:18;94428.03;;;9.73;100.00
15050;BME280;7622;42.724;23.250;2023-03-25T00:05:46;94426.56;;;9.61;100.00
15050;BME280;7622;42.724;23.250;2023-03-25T00:08:13;94417.19;;;9.60;100.00
15050;BME280;7622;42.724;23.250;2023-03-25T00:10:40;94421.00;;;9.83;100.00
15050;BME280;7622;42.724;23.250;2023-03-25T00:13:06;94417.06;;;9.79;100.00
15050;BME280;7622;42.724;23.250;2023-03-25T00:15:33;94427.38;;;9.89;100.00
15050;BME280;7622;42.724;23.250;2023-03-25T00:18:00;94412.09;;;9.96;100.00
15050;BME280;7622;42.724;23.250;2023-03-25T00:20:27;94407.69;;;9.96;100.00
15050;BME280;7622;42.724;23.250;2023-03-25T00:22:55;94409.22;;;9.89;100.00
15050;BME280;7622;42.724;23.250;2023-03-25T00:25:22;94398.06;;;9.88;100.00
15050;BME280;7622;42.724;23.250;2023-03-25T00:27:49;94400.28;;;10.01;100.00
15050;BME280;7622;42.724;23.250;2023-03-25T00:30:17;94372.78;;;9.63;100.00
15050;BME280;7622;42.724;23.250;2023-03-25T00:32:44;94406.41;;;9.55;100.00
15050;BME280;7622;42.724;23.250;2023-03-25T00:35:14;94404.28;;;9.68;100.00
15050;BME280;7622;42.724;23.250;2023-03-25T00:37:44;94400.06;;;9.40;100.00
15050;BME280;7622;42.724;23.250;2023-03-25T00:40:13;94396.59;;;9.49;100.00
15050;BME280;7622;42.724;23.250;2023-03-25T00:42:40;94402.69;;;9.67;100.00
15050;BME280;7622;42.724;23.250;2023-03-25T00:45:09;94393.53;;;9.63;100.00
15050;BME280;7622;42.724;23.250;2023-03-25T00:47:36;94368.09;;;9.49;100.00
15050;BME280;7622;42.724;23.250;2023-03-25T00:50:04;94386.88;;;9.61;100.00
15050;BME280;7622;42.724;23.250;2023-03-25T00:52:31;94378.88;;;9.54;100.00
15050;BME280;7622;42.724;23.250;2023-03-25T00:54:58;94385.28;;;9.50;100.00
15050;BME280;7622;42.724;23.250;2023-03-25T00:57:27;94380.19;;;9.58;100.00
15050;BME280;7622;42.724;23.250;2023-03-25T00:59:54;94381.69;;;9.61;100.00
15050;BME280;7622;42.724;23.250;2023-03-25T01:02:23;94257.44;;;9.04;100.00
15050;BME280;7622;42.724;23.250;2023-03-25T01:04:50;94376.59;;;9.41;100.00
15050;BME280;7622;42.724;23.250;2023-03-25T01:07:18;94375.88;;;9.49;100.00
15050;BME280;7622;42.724;23.250;2023-03-25T01:09:45;94371.38;;;9.51;100.00
15050;BME280;7622;42.724;23.250;2023-03-25T01:12:13;94376.81;;;9.48;100.00
15050;BME280;7622;42.724;23.250;2023-03-25T01:14:42;94368.88;;;9.59;100.00
15050;BME280;7622;42.724;23.250;2023-03-25T01:17:09;94372.41;;;9.58;100.00
15050;BME280;7622;42.724;23.250;2023-03-25T01:19:36;94364.75;;;9.66;100.00
15050;BME280;7622;42.724;23.250;2023-03-25T01:22:03;94350.34;;;9.54;100.00
15050;BME280;7622;42.724;23.250;2023-03-25T01:24:30;94353.59;;;9.56;100.00
15050;BME280;7622;42.724;23.250;2023-03-25T01:26:57;94353.13;;;9.43;100.00
15050;BME280;7622;42.724;23.250;2023-03-25T01:29:24;94352.41;;;9.68;100.00
15050;BME280;7622;42.724;23.250;2023-03-25T01:31:52;94340.94;;;9.53;100.00
15050;BME280;7622;42.724;23.250;2023-03-25T01:34:21;94337.88;;;9.40;100.00
15050;BME280;7622;42.724;23.250;2023-03-25T01:36:48;94331.78;;;9.49;100.00
15050;BME280;7622;42.724;23.250;2023-03-25T01:39:17;94332.44;;;9.61;100.00
15050;BME280;7622;42.724;23.250;2023-03-25T01:41:46;94334.59;;;9.38;100.00
15050;BME280;7622;42.724;23.250;2023-03-25T01:47:15;94333.38;;;9.60;100.00
15050;BME280;7622;42.724;23.250;2023-03-25T01:49:43;94335.56;;;9.55;100.00
15050;BME280;7622;42.724;23.250;2023-03-25T01:52:14;94332.59;;;9.32;100.00
15050;BME280;7622;42.724;23.250;2023-03-25T01:54:46;94340.34;;;9.32;100.00
15050;BME280;7622;42.724;23.250;2023-03-25T01:57:17;94331.56;;;9.42;100.00
15050;BME280;7622;42.724;23.250;2023-03-25T01:59:46;94331.13;;;9.20;100.00
15050;BME280;7622;42.724;23.250;2023-03-25T02:02:19;94328.13;;;9.24;100.00
15050;BME280;7622;42.724;23.250;2023-03-25T02:04:54;94324.72;;;9.24;100.00
15050;BME280;7622;42.724;23.250;2023-03-25T02:07:24;94315.50;;;9.39;100.00
15050;BME280;7622;42.724;23.250;2023-03-25T02:09:55;94320.75;;;9.20;100.00
15050;BME280;7622;42.724;23.250;2023-03-25T02:12:23;94295.72;;;9.11;100.00
15050;BME280;7622;42.724;23.250;2023-03-25T02:14:49;94316.97;;;9.14;100.00
15050;BME280;7622;42.724;23.250;2023-03-25T02:17:24;94312.50;;;9.06;100.00
15050;BME280;7622;42.724;23.250;2023-03-25T02:20:22;94313.41;;;9.15;100.00
15050;BME280;7622;42.724;23.250;2023-03-25T02:23:11;94313.19;;;9.08;100.00
15050;BME280;7622;42.724;23.250;2023-03-25T02:26:33;94318.31;;;9.18;100.00
15050;BME280;7622;42.724;23.250;2023-03-25T02:29:24;94303.66;;;8.99;100.00
15050;BME280;7622;42.724;23.250;2023-03-25T02:32:07;94307.88;;;9.00;100.00
15050;BME280;7622;42.724;23.250;2023-03-25T02:35:03;94314.91;;;8.90;100.00
15050;BME280;7622;42.724;23.250;2023-03-25T02:37:52;94303.63;;;9.09;100.00
15050;BME280;7622;42.724;23.250;2023-03-25T02:40:27;94305.19;;;9.20;100.00
15050;BME280;7622;42.724;23.250;2023-03-25T02:43:02;94301.63;;;9.03;100.00
15050;BME280;7622;42.724;23.250;2023-03-25T02:45:31;94306.66;;;9.04;100.00
15050;BME280;7622;42.724;23.250;2023-03-25T02:48:03;94299.53;;;9.06;100.00
15050;BME280;7622;42.724;23.250;2023-03-25T02:50:33;94302.94;;;9.07;100.00
15050;BME280;7622;42.724;23.250;2023-03-25T02:53:05;94303.16;;;8.86;100.00
15050;BME280;7622;42.724;23.250;2023-03-25T02:55:36;94303.66;;;8.99;100.00
15050;BME280;7622;42.724;23.250;2023-03-25T02:58:08;94298.22;;;9.02;100.00
15050;BME280;7622;42.724;23.250;2023-03-25T03:00:36;94282.88;;;8.91;100.00
15050;BME280;7622;42.724;23.250;2023-03-25T03:03:04;94291.47;;;8.82;100.00
15050;BME280;7622;42.724;23.250;2023-03-25T03:05:33;94293.69;;;8.77;100.00
15050;BME280;7622;42.724;23.250;2023-03-25T03:08:10;94293.44;;;8.61;100.00
15050;BME280;7622;42.724;23.250;2023-03-25T03:10:48;94287.50;;;8.78;100.00
15050;BME280;7622;42.724;23.250;2023-03-25T03:13:21;94284.44;;;8.65;100.00
15050;BME280;7622;42.724;23.250;2023-03-25T03:15:57;94290.38;;;8.85;100.00
15050;BME280;7622;42.724;23.250;2023-03-25T03:18:37;94302.41;;;8.76;100.00
15050;BME280;7622;42.724;23.250;2023-03-25T03:21:11;94304.88;;;8.68;100.00
15050;BME280;7622;42.724;23.250;2023-03-25T03:23:48;94299.47;;;8.52;100.00
15050;BME280;7622;42.724;23.250;2023-03-25T03:26:23;94297.28;;;8.57;100.00
15050;BME280;7622;42.724;23.250;2023-03-25T03:28:57;94304.38;;;8.55;100.00
15050;BME280;7622;42.724;23.250;2023-03-25T03:31:30;94306.53;;;8.59;100.00
15050;BME280;7622;42.724;23.250;2023-03-25T03:34:04;94311.31;;;8.45;100.00
15050;BME280;7622;42.724;23.250;2023-03-25T03:36:38;94314.34;;;8.50;100.00
15050;BME280;7622;42.724;23.250;2023-03-25T03:39:14;94315.16;;;8.21;100.00
15050;BME280;7622;42.724;23.250;2023-03-25T03:41:46;94316.78;;;8.22;100.00
15050;BME280;7622;42.724;23.250;2023-03-25T03:44:19;94306.88;;;8.08;100.00
15050;BME280;7622;42.724;23.250;2023-03-25T03:46:51;94296.91;;;7.75;100.00
15050;BME280;7622;42.724;23.250;2023-03-25T03:49:26;94311.75;;;7.92;100.00
15050;BME280;7622;42.724;23.250;2023-03-25T03:51:57;94318.13;;;7.59;100.00
15050;BME280;7622;42.724;23.250;2023-03-25T03:54:29;94315.84;;;8.04;100.00
15050;BME280;7622;42.724;23.250;2023-03-25T03:57:00;94313.41;;;7.74;100.00
15050;BME280;7622;42.724;23.250;2023-03-25T03:59:34;94307.69;;;7.99;100.00
15050;BME280;7622;42.724;23.250;2023-03-25T04:02:09;94307.69;;;7.80;100.00
15050;BME280;7622;42.724;23.250;2023-03-25T04:04:38;94309.72;;;7.67;100.00
15050;BME280;7622;42.724;23.250;2023-03-25T04:07:11;94309.97;;;7.64;100.00
15050;BME280;7622;42.724;23.250;2023-03-25T04:09:51;94310.81;;;7.74;100.00
15050;BME280;7622;42.724;23.250;2023-03-25T04:12:24;94309.03;;;7.65;100.00
15050;BME280;7622;42.724;23.250;2023-03-25T04:14:52;94313.09;;;7.77;100.00
15050;BME280;7622;42.724;23.250;2023-03-25T04:17:19;94313.09;;;7.77;100.00
15050;BME280;7622;42.724;23.250;2023-03-25T04:19:46;94315.38;;;7.61;100.00
15050;BME280;7622;42.724;23.250;2023-03-25T04:22:19;94297.44;;;7.69;100.00
15050;BME280;7622;42.724;23.250;2023-03-25T04:24:47;94305.91;;;7.71;100.00
15050;BME280;7622;42.724;23.250;2023-03-25T04:27:16;94313.78;;;7.79;100.00
15050;BME280;7622;42.724;23.250;2023-03-25T04:29:44;94307.00;;;7.87;100.00
15050;BME280;7622;42.724;23.250;2023-03-25T04:32:12;94314.75;;;7.97;100.00
15050;BME280;7622;42.724;23.250;2023-03-25T04:34:39;94316.06;;;8.59;100.00
15050;BME280;7622;42.724;23.250;2023-03-25T04:37:06;94305.19;;;9.20;100.00
15050;BME280;7622;42.724;23.250;2023-03-25T04:39:33;94307.06;;;9.55;100.00
15050;BME280;7622;42.724;23.250;2023-03-25T04:42:01;94306.22;;;10.17;100.00
15050;BME280;7622;42.724;23.250;2023-03-25T04:44:28;94302.63;;;10.53;100.00
15050;BME280;7622;42.724;23.250;2023-03-25T04:46:58;94303.25;;;10.99;100.00
15050;BME280;7622;42.724;23.250;2023-03-25T04:49:25;94270.78;;;11.11;100.00
15050;BME280;7622;42.724;23.250;2023-03-25T04:51:53;94288.25;;;11.35;100.00
15050;BME280;7622;42.724;23.250;2023-03-25T04:54:21;94304.47;;;11.71;100.00
15050;BME280;7622;42.724;23.250;2023-03-25T04:56:48;94305.09;;;11.65;100.00
15050;BME280;7622;42.724;23.250;2023-03-25T04:59:17;94303.78;;;11.53;100.00
15050;BME280;7622;42.724;23.250;2023-03-25T05:01:44;94296.28;;;12.08;100.00
15050;BME280;7622;42.724;23.250;2023-03-25T05:04:13;94305.81;;;11.83;100.00
15050;BME280;7622;42.724;23.250;2023-03-25T05:06:43;94309.47;;;12.14;100.00
15050;BME280;7622;42.724;23.250;2023-03-25T05:09:13;94313.66;;;11.99;100.00
15050;BME280;7622;42.724;23.250;2023-03-25T05:11:41;94303.09;;;11.93;100.00
15050;BME280;7622;42.724;23.250;2023-03-25T05:14:08;94317.59;;;12.11;100.00
15050;BME280;7622;42.724;23.250;2023-03-25T05:16:38;94321.00;;;12.20;100.00
15050;BME280;7622;42.724;23.250;2023-03-25T05:19:05;94309.94;;;12.34;100.00
15050;BME280;7622;42.724;23.250;2023-03-25T05:21:33;94314.81;;;12.61;100.00
15050;BME280;7622;42.724;23.250;2023-03-25T05:24:02;94305.16;;;12.94;97.02
15050;BME280;7622;42.724;23.250;2023-03-25T05:26:29;94310.34;;;13.02;96.75
15050;BME280;7622;42.724;23.250;2023-03-25T05:29:00;94308.72;;;13.26;92.66
15050;BME280;7622;42.724;23.250;2023-03-25T05:31:27;94304.50;;;13.17;93.61
15050;BME280;7622;42.724;23.250;2023-03-25T05:33:55;94303.44;;;13.73;87.27
15050;BME280;7622;42.724;23.250;2023-03-25T05:36:22;94301.84;;;13.64;87.73
15050;BME280;7622;42.724;23.250;2023-03-25T05:38:50;94312.97;;;14.42;86.91
15050;BME280;7622;42.724;23.250;2023-03-25T05:41:19;94315.63;;;15.09;80.74
15050;BME280;7622;42.724;23.250;2023-03-25T05:43:48;94319.31;;;15.88;72.24
15050;BME280;7622;42.724;23.250;2023-03-25T05:46:15;94321.28;;;16.01;71.20
15050;BME280;7622;42.724;23.250;2023-03-25T05:48:43;94324.41;;;16.32;68.31
15050;BME280;7622;42.724;23.250;2023-03-25T05:51:13;94317.88;;;16.22;67.16
15050;BME280;7622;42.724;23.250;2023-03-25T05:53:41;94317.16;;;16.70;63.85
15050;BME280;7622;42.724;23.250;2023-03-25T05:56:09;94310.41;;;16.61;63.55
15050;BME280;7622;42.724;23.250;2023-03-25T05:58:36;94321.75;;;16.89;63.44
15050;BME280;7622;42.724;23.250;2023-03-25T06:01:04;94322.81;;;16.74;62.20
15050;BME280;7622;42.724;23.250;2023-03-25T06:03:30;94294.75;;;16.96;64.89
15050;BME280;7622;42.724;23.250;2023-03-25T06:05:58;94312.53;;;17.28;62.93
15050;BME280;7622;42.724;23.250;2023-03-25T06:08:27;94312.28;;;17.23;62.25
15050;BME280;7622;42.724;23.250;2023-03-25T06:10:56;94305.84;;;17.25;60.89
15050;BME280;7622;42.724;23.250;2023-03-25T06:13:25;94307.50;;;17.33;61.22
15050;BME280;7622;42.724;23.250;2023-03-25T06:15:51;94307.66;;;17.59;59.62
15050;BME280;7622;42.724;23.250;2023-03-25T06:18:21;94306.72;;;17.39;59.18
15050;BME280;7622;42.724;23.250;2023-03-25T06:20:50;94310.63;;;17.50;59.96
15050;BME280;7622;42.724;23.250;2023-03-25T06:23:18;94306.06;;;18.19;58.17
15050;BME280;7622;42.724;23.250;2023-03-25T06:25:48;94317.44;;;17.72;58.07
15050;BME280;7622;42.724;23.250;2023-03-25T06:28:15;94315.78;;;17.64;58.83
15050;BME280;7622;42.724;23.250;2023-03-25T06:30:43;94309.34;;;17.74;57.49
15050;BME280;7622;42.724;23.250;2023-03-25T06:33:10;94316.72;;;17.57;58.81
15050;BME280;7622;42.724;23.250;2023-03-25T06:35:38;94312.25;;;17.92;57.58
15050;BME280;7622;42.724;23.250;2023-03-25T06:38:05;94324.13;;;17.40;59.04
15050;BME280;7622;42.724;23.250;2023-03-25T06:40:32;94310.47;;;18.05;57.98
15050;BME280;7622;42.724;23.250;2023-03-25T06:43:00;94313.53;;;18.02;56.14
15050;BME280;7622;42.724;23.250;2023-03-25T06:45:27;94320.41;;;18.10;57.29
15050;BME280;7622;42.724;23.250;2023-03-25T06:47:54;94310.34;;;18.33;56.15
15050;BME280;7622;42.724;23.250;2023-03-25T06:50:23;94325.50;;;17.70;57.07
15050;BME280;7622;42.724;23.250;2023-03-25T06:52:50;94324.94;;;17.75;58.47
15050;BME280;7622;42.724;23.250;2023-03-25T06:55:16;94330.72;;;17.64;57.97
15050;BME280;7622;42.724;23.250;2023-03-25T06:57:43;94319.41;;;17.36;59.79
15050;BME280;7622;42.724;23.250;2023-03-25T07:00:12;94330.84;;;17.84;58.55
15050;BME280;7622;42.724;23.250;2023-03-25T07:02:39;94322.94;;;18.51;57.25
15050;BME280;7622;42.724;23.250;2023-03-25T07:05:06;94326.72;;;18.29;56.65
15050;BME280;7622;42.724;23.250;2023-03-25T07:07:33;94325.81;;;18.89;55.59
15050;BME280;7622;42.724;23.250;2023-03-25T07:10:00;94321.75;;;19.52;53.99
15050;BME280;7622;42.724;23.250;2023-03-25T07:12:27;94307.16;;;19.30;53.85
15050;BME280;7622;42.724;23.250;2023-03-25T07:14:55;94305.41;;;19.88;53.00
15050;BME280;7622;42.724;23.250;2023-03-25T07:17:25;94311.88;;;19.92;52.83
15050;BME280;7622;42.724;23.250;2023-03-25T07:19:52;94315.88;;;20.08;52.40
15050;BME280;7622;42.724;23.250;2023-03-25T07:22:20;94327.94;;;19.84;52.71
15050;BME280;7622;42.724;23.250;2023-03-25T07:24:49;94318.78;;;19.87;52.46
15050;BME280;7622;42.724;23.250;2023-03-25T07:27:19;94297.44;;;19.24;53.55
15050;BME280;7622;42.724;23.250;2023-03-25T07:29:47;94317.44;;;19.71;52.59
15050;BME280;7622;42.724;23.250;2023-03-25T07:32:13;94314.19;;;19.76;53.31
15050;BME280;7622;42.724;23.250;2023-03-25T07:34:41;94311.09;;;19.85;52.60
15050;BME280;7622;42.724;23.250;2023-03-25T07:37:08;94319.94;;;20.11;52.21
15050;BME280;7622;42.724;23.250;2023-03-25T07:39:35;94308.06;;;20.64;50.93
15050;BME280;7622;42.724;23.250;2023-03-25T07:42:03;94311.88;;;21.25;49.88
15050;BME280;7622;42.724;23.250;2023-03-25T07:44:31;94297.56;;;21.57;49.15
15050;BME280;7622;42.724;23.250;2023-03-25T07:46:57;94291.38;;;21.63;48.95
15050;BME280;7622;42.724;23.250;2023-03-25T07:49:24;94300.56;;;21.60;48.35
15050;BME280;7622;42.724;23.250;2023-03-25T07:51:52;94284.78;;;22.20;48.11
15050;BME280;7622;42.724;23.250;2023-03-25T07:54:19;94285.72;;;22.74;46.78
15050;BME280;7622;42.724;23.250;2023-03-25T07:56:48;94290.38;;;22.72;46.23
15050;BME280;7622;42.724;23.250;2023-03-25T07:59:17;94284.78;;;22.38;46.98
15050;BME280;7622;42.724;23.250;2023-03-25T08:01:43;94286.50;;;22.45;47.15
15050;BME280;7622;42.724;23.250;2023-03-25T08:04:10;94281.72;;;22.95;46.23
15050;BME280;7622;42.724;23.250;2023-03-25T08:06:38;94276.44;;;23.53;45.31
15050;BME280;7622;42.724;23.250;2023-03-25T08:09:06;94267.66;;;23.17;45.48
15050;BME280;7622;42.724;23.250;2023-03-25T08:11:33;94257.06;;;23.41;45.14
15050;BME280;7622;42.724;23.250;2023-03-25T08:14:00;94261.53;;;23.75;44.77
15050;BME280;7622;42.724;23.250;2023-03-25T08:16:27;94262.03;;;23.49;44.95
15050;BME280;7622;42.724;23.250;2023-03-25T08:18:54;94265.34;;;24.08;44.72
15050;BME280;7622;42.724;23.250;2023-03-25T08:21:21;94261.47;;;23.87;44.77
15050;BME280;7622;42.724;23.250;2023-03-25T08:23:50;94264.91;;;23.47;44.92
15050;BME280;7622;42.724;23.250;2023-03-25T08:26:20;94256.72;;;23.49;44.84
15050;BME280;7622;42.724;23.250;2023-03-25T08:28:47;94263.53;;;22.68;45.60
15050;BME280;7622;42.724;23.250;2023-03-25T08:31:14;94260.22;;;22.31;46.25
15050;BME280;7622;42.724;23.250;2023-03-25T08:33:40;94261.78;;;22.51;46.18
15050;BME280;7622;42.724;23.250;2023-03-25T08:36:09;94256.50;;;22.62;46.23
15050;BME280;7622;42.724;23.250;2023-03-25T08:38:38;94194.72;;;21.67;46.95
15050;BME280;7622;42.724;23.250;2023-03-25T08:41:06;94251.94;;;21.43;48.06
15050;BME280;7622;42.724;23.250;2023-03-25T08:43:34;94250.63;;;21.71;48.10
15050;BME280;7622;42.724;23.250;2023-03-25T08:46:01;94246.78;;;22.03;47.42
15050;BME280;7622;42.724;23.250;2023-03-25T08:48:28;94242.31;;;22.45;46.91
15050;BME280;7622;42.724;23.250;2023-03-25T08:50:55;94222.06;;;22.39;46.37
15050;BME280;7622;42.724;23.250;2023-03-25T08:53:22;94249.06;;;22.29;46.54
15050;BME280;7622;42.724;23.250;2023-03-25T08:55:50;94232.22;;;22.54;46.15
15050;BME280;7622;42.724;23.250;2023-03-25T08:58:17;94236.31;;;22.38;47.36
15050;BME280;7622;42.724;23.250;2023-03-25T09:00:45;94247.34;;;22.76;46.69
15050;BME280;7622;42.724;23.250;2023-03-25T09:03:12;94237.81;;;22.87;46.12
15050;BME280;7622;42.724;23.250;2023-03-25T09:05:39;94231.81;;;23.27;44.66
15050;BME280;7622;42.724;23.250;2023-03-25T09:08:06;94225.09;;;23.59;44.25
15050;BME280;7622;42.724;23.250;2023-03-25T09:10:33;94203.59;;;24.12;43.41
15050;BME280;7622;42.724;23.250;2023-03-25T09:13:00;94220.91;;;24.43;42.77
15050;BME280;7622;42.724;23.250;2023-03-25T09:15:27;94224.78;;;23.95;43.93
15050;BME280;7622;42.724;23.250;2023-03-25T09:17:55;94216.34;;;23.47;44.32
15050;BME280;7622;42.724;23.250;2023-03-25T09:20:22;94219.13;;;23.52;44.33
15050;BME280;7622;42.724;23.250;2023-03-25T09:22:49;94225.59;;;23.56;44.72
15050;BME280;7622;42.724;23.250;2023-03-25T09:25:16;94222.88;;;24.08;43.72
15050;BME280;7622;42.724;23.250;2023-03-25T09:27:43;94217.50;;;24.31;43.43
15050;BME280;7622;42.724;23.250;2023-03-25T09:30:11;94217.22;;;24.61;42.94
15050;BME280;7622;42.724;23.250;2023-03-25T09:32:38;94209.88;;;24.85;42.30
15050;BME280;7622;42.724;23.250;2023-03-25T09:35:06;94221.63;;;24.39;43.00
15050;BME280;7622;42.724;23.250;2023-03-25T09:37:33;94213.88;;;24.37;44.61
15050;BME280;7622;42.724;23.250;2023-03-25T09:40:00;94205.53;;;24.45;44.19
15050;BME280;7622;42.724;23.250;2023-03-25T09:42:46;94205.47;;;24.40;42.80
15050;BME280;7622;42.724;23.250;2023-03-25T09:45:29;94192.34;;;23.65;42.35
15050;BME280;7622;42.724;23.250;2023-03-25T09:48:02;94130.50;;;23.25;42.54
15050;BME280;7622;42.724;23.250;2023-03-25T09:50:33;94171.53;;;23.34;42.63
15050;BME280;7622;42.724;23.250;2023-03-25T09:53:04;94189.97;;;23.52;42.08
15050;BME280;7622;42.724;23.250;2023-03-25T09:55:37;94187.31;;;23.52;41.80
15050;BME280;7622;42.724;23.250;2023-03-25T09:58:31;94178.25;;;23.76;40.82
15050;BME280;7622;42.724;23.250;2023-03-25T10:01:05;94179.50;;;23.85;40.52
15050;BME280;7622;42.724;23.250;2023-03-25T10:03:46;94178.56;;;24.20;40.16
15050;BME280;7622;42.724;23.250;2023-03-25T10:06:19;94166.41;;;24.24;39.10
15050;BME280;7622;42.724;23.250;2023-03-25T10:09:20;94166.81;;;24.49;39.37
15050;BME280;7622;42.724;23.250;2023-03-25T10:11:57;94160.31;;;24.73;39.66
15050;BME280;7622;42.724;23.250;2023-03-25T10:14:32;94161.81;;;24.36;40.87
15050;BME280;7622;42.724;23.250;2023-03-25T10:17:11;94161.38;;;23.82;41.67
15050;BME280;7622;42.724;23.250;2023-03-25T10:19:52;94146.94;;;23.62;41.16
15050;BME280;7622;42.724;23.250;2023-03-25T10:22:26;94147.31;;;23.53;41.73
15050;BME280;7622;42.724;23.250;2023-03-25T10:24:57;94138.75;;;23.63;41.11
15050;BME280;7622;42.724;23.250;2023-03-25T10:27:31;94136.84;;;23.75;41.03
15050;BME280;7622;42.724;23.250;2023-03-25T10:30:03;94141.50;;;23.68;40.67
15050;BME280;7622;42.724;23.250;2023-03-25T10:32:38;94134.59;;;24.12;40.52
15050;BME280;7622;42.724;23.250;2023-03-25T10:35:10;94130.28;;;24.23;39.48
15050;BME280;7622;42.724;23.250;2023-03-25T10:37:39;94121.41;;;24.17;39.54
15050;BME280;7622;42.724;23.250;2023-03-25T10:40:21;94118.50;;;24.86;39.93
15050;BME280;7622;42.724;23.250;2023-03-25T10:42:58;94119.63;;;25.50;38.76
15050;BME280;7622;42.724;23.250;2023-03-25T10:45:32;94114.66;;;26.34;37.45
15050;BME280;7622;42.724;23.250;2023-03-25T10:48:09;94108.63;;;26.49;37.52
15050;BME280;7622;42.724;23.250;2023-03-25T10:50:39;94097.81;;;26.60;37.37
15050;BME280;7622;42.724;23.250;2023-03-25T10:53:12;94102.53;;;26.21;37.34
15050;BME280;7622;42.724;23.250;2023-03-25T10:55:44;94104.50;;;26.04;36.84
15050;BME280;7622;42.724;23.250;2023-03-25T10:58:15;94089.97;;;25.85;36.46
15050;BME280;7622;42.724;23.250;2023-03-25T11:00:43;94102.00;;;26.19;36.27
15050;BME280;7622;42.724;23.250;2023-03-25T11:03:15;94094.09;;;26.61;35.70
15050;BME280;7622;42.724;23.250;2023-03-25T11:05:45;94087.22;;;26.34;35.92
15050;BME280;7622;42.724;23.250;2023-03-25T11:08:14;94068.53;;;25.70;35.59
15050;BME280;7622;42.724;23.250;2023-03-25T11:10:46;94062.31;;;25.37;36.20
15050;BME280;7622;42.724;23.250;2023-03-25T11:13:15;94081.22;;;25.19;36.50
15050;BME280;7622;42.724;23.250;2023-03-25T11:15:46;94080.56;;;24.52;36.93
15050;BME280;7622;42.724;23.250;2023-03-25T11:18:19;94081.69;;;24.39;37.17
15050;BME280;7622;42.724;23.250;2023-03-25T11:20:48;94071.94;;;24.45;36.89
15050;BME280;7622;42.724;23.250;2023-03-25T11:23:23;94067.31;;;24.73;36.69
15050;BME280;7622;42.724;23.250;2023-03-25T11:25:53;94063.50;;;25.03;36.53
15050;BME280;7622;42.724;23.250;2023-03-25T11:28:25;94057.66;;;25.28;36.11
15050;BME280;7622;42.724;23.250;2023-03-25T11:31:06;94026.81;;;25.05;36.26
15050;BME280;7622;42.724;23.250;2023-03-25T11:33:33;94045.38;;;25.00;36.94
15050;BME280;7622;42.724;23.250;2023-03-25T11:36:10;94027.28;;;24.42;37.89
15050;BME280;7622;42.724;23.250;2023-03-25T11:38:39;94035.50;;;24.07;38.07
15050;BME280;7622;42.724;23.250;2023-03-25T11:41:06;94034.22;;;24.09;38.28
15050;BME280;7622;42.724;23.250;2023-03-25T11:43:35;94049.19;;;23.99;38.57
15050;BME280;7622;42.724;23.250;2023-03-25T11:46:08;94028.91;;;23.92;38.69
15050;BME280;7622;42.724;23.250;2023-03-25T11:48:38;94042.59;;;23.28;39.35
15050;BME280;7622;42.724;23.250;2023-03-25T11:51:10;94029.81;;;23.25;39.67
15050;BME280;7622;42.724;23.250;2023-03-25T11:53:43;94043.25;;;23.35;39.24
15050;BME280;7622;42.724;23.250;2023-03-25T11:56:15;94030.59;;;23.25;39.36
15050;BME280;7622;42.724;23.250;2023-03-25T11:58:45;94015.03;;;23.00;39.34
15050;BME280;7622;42.724;23.250;2023-03-25T12:01:21;94030.75;;;22.67;40.24
15050;BME280;7622;42.724;23.250;2023-03-25T12:03:49;94027.31;;;22.55;40.83
15050;BME280;7622;42.724;23.250;2023-03-25T12:06:18;94027.69;;;22.47;40.63
15050;BME280;7622;42.724;23.250;2023-03-25T12:08:50;94023.88;;;21.96;41.16
15050;BME280;7622;42.724;23.250;2023-03-25T12:11:19;94026.19;;;22.16;40.94
15050;BME280;7622;42.724;23.250;2023-03-25T12:14:04;94021.63;;;21.81;41.35
15050;BME280;7622;42.724;23.250;2023-03-25T12:16:45;94022.91;;;21.37;41.74
15050;BME280;7622;42.724;23.250;2023-03-25T12:19:22;94025.22;;;21.34;42.12
15050;BME280;7622;42.724;23.250;2023-03-25T12:22:07;94017.41;;;21.09;41.99
15050;BME280;7622;42.724;23.250;2023-03-25T12:24:58;94017.34;;;20.97;42.21
15050;BME280;7622;42.724;23.250;2023-03-25T12:27:37;94018.72;;;21.00;42.34
15050;BME280;7622;42.724;23.250;2023-03-25T12:30:18;94015.69;;;21.14;42.25
15050;BME280;7622;42.724;23.250;2023-03-25T12:32:54;94017.38;;;21.27;41.87
15050;BME280;7622;42.724;23.250;2023-03-25T12:35:29;94019.72;;;21.35;41.87
15050;BME280;7622;42.724;23.250;2023-03-25T12:38:15;94019.88;;;21.04;42.41
15050;BME280;7622;42.724;23.250;2023-03-25T12:40:58;94014.44;;;21.17;41.82
15050;BME280;7622;42.724;23.250;2023-03-25T12:43:36;94006.94;;;21.32;41.70
15050;BME280;7622;42.724;23.250;2023-03-25T12:46:20;94007.84;;;21.26;42.10
15050;BME280;7622;42.724;23.250;2023-03-25T12:49:06;94009.53;;;21.50;42.10
15050;BME280;7622;42.724;23.250;2023-03-25T12:51:46;94005.59;;;21.41;41.52
15050;BME280;7622;42.724;23.250;2023-03-25T12:54:28;93993.41;;;21.40;41.67
15050;BME280;7622;42.724;23.250;2023-03-25T12:57:08;94010.16;;;21.34;42.14
15050;BME280;7622;42.724;23.250;2023-03-25T12:59:54;94006.97;;;21.14;42.37
15050;BME280;7622;42.724;23.250;2023-03-25T13:02:47;94007.78;;;21.14;42.80
15050;BME280;7622;42.724;23.250;2023-03-25T13:05:19;94009.47;;;21.09;42.83
15050;BME280;7622;42.724;23.250;2023-03-25T13:07:50;94008.75;;;21.02;43.21
15050;BME280;7622;42.724;23.250;2023-03-25T13:10:21;94007.44;;;20.93;43.20
15050;BME280;7622;42.724;23.250;2023-03-25T13:12:50;94005.47;;;20.70;43.46
15050;BME280;7622;42.724;23.250;2023-03-25T13:15:20;94010.63;;;20.65;43.54
15050;BME280;7622;42.724;23.250;2023-03-25T13:17:50;94007.69;;;20.73;43.42
15050;BME280;7622;42.724;23.250;2023-03-25T13:20:22;93998.03;;;20.67;43.49
15050;BME280;7622;42.724;23.250;2023-03-25T13:22:53;93997.22;;;20.66;44.05